createdAt,value
2023-02-19T00:00:15.442Z,100519.94
2023-02-19T00:05:17.729Z,100527.44
2023-02-19T00:10:19.834Z,100529.88
2023-02-19T00:15:22.031Z,100513.34
2023-02-19T00:20:24.433Z,100515.94
2023-02-19T00:25:26.569Z,100502.19
2023-02-19T00:30:28.756Z,100501.00
2023-02-19T00:35:34.281Z,100495.53
2023-02-19T00:40:36.412Z,100509.91
2023-02-19T00:45:38.603Z,100498.28
2023-02-19T00:50:40.692Z,100498.34
2023-02-19T00:55:43.276Z,100505.53
2023-02-19T01:00:45.444Z,100511.56
2023-02-19T01:05:47.561Z,100511.00
2023-02-19T01:10:49.698Z,100504.91
2023-02-19T01:15:52.420Z,100508.78
2023-02-19T01:20:54.869Z,100512.72
2023-02-19T01:25:56.962Z,100494.00
2023-02-19T01:31:04.308Z,100487.87
2023-02-19T01:36:07.374Z,100481.03
2023-02-19T01:41:12.303Z,100501.59
2023-02-19T01:46:14.555Z,100495.63
2023-02-19T01:51:19.661Z,100497.06
2023-02-19T01:56:23.681Z,100492.13
2023-02-19T02:01:25.829Z,100485.03
2023-02-19T02:06:36.471Z,100494.09
2023-02-19T02:11:45.153Z,100468.25
2023-02-19T02:17:11.707Z,100486.12
2023-02-19T02:22:29.670Z,100476.44
2023-02-19T02:28:04.786Z,100437.31
2023-02-19T02:33:13.058Z,100441.44
2023-02-19T02:38:17.783Z,100453.50
2023-02-19T02:43:19.939Z,100467.56
2023-02-19T02:48:30.214Z,100467.09
2023-02-19T02:53:53.814Z,100473.88
2023-02-19T02:58:58.463Z,100471.44
2023-02-19T03:04:05.957Z,100459.94
2023-02-19T03:09:30.197Z,100470.69
2023-02-19T03:15:02.392Z,100477.59
2023-02-19T03:20:10.229Z,100486.28
2023-02-19T03:25:38.337Z,100487.09
2023-02-19T03:30:46.322Z,100482.47
2023-02-19T03:35:57.507Z,100494.87
2023-02-19T03:41:11.231Z,100487.94
2023-02-19T03:46:23.337Z,100489.34
2023-02-19T03:51:42.229Z,100491.59
2023-02-19T03:56:58.756Z,100508.63
2023-02-19T04:02:08.431Z,100495.16
2023-02-19T04:07:11.189Z,100499.00
2023-02-19T04:12:15.745Z,100497.06
2023-02-19T04:17:27.402Z,100493.25
2023-02-19T04:22:30.446Z,100501.25
2023-02-19T04:27:32.935Z,100492.97
2023-02-19T04:32:35.053Z,100505.34
2023-02-19T04:37:37.140Z,100495.75
2023-02-19T04:42:39.360Z,100495.69
2023-02-19T04:47:41.538Z,100498.63
2023-02-19T04:52:43.705Z,100499.50
2023-02-19T04:57:45.878Z,100502.81
2023-02-19T05:02:48.020Z,100502.34
2023-02-19T05:07:50.149Z,100486.91
2023-02-19T05:12:52.497Z,100477.28
2023-02-19T05:17:54.578Z,100480.06
2023-02-19T05:22:57.079Z,100469.91
2023-02-19T05:28:16.968Z,100491.06
2023-02-19T05:33:21.056Z,100494.06
2023-02-19T05:38:24.120Z,100502.53
2023-02-19T05:43:26.201Z,100483.56
2023-02-19T05:48:28.331Z,100489.62
2023-02-19T05:53:30.978Z,100473.12
2023-02-19T05:58:33.072Z,100487.41
2023-02-19T06:03:35.158Z,100494.28
2023-02-19T06:08:38.381Z,100492.38
2023-02-19T06:13:40.507Z,100506.94
2023-02-19T06:18:43.829Z,100501.72
2023-02-19T06:23:45.996Z,100493.47
2023-02-19T06:28:50.161Z,100488.03
2023-02-19T06:33:52.364Z,100481.97
2023-02-19T06:38:54.523Z,100479.50
2023-02-19T06:43:59.554Z,100475.09
2023-02-19T06:49:03.612Z,100472.91
2023-02-19T06:54:05.872Z,100468.25
2023-02-19T06:59:11.637Z,100476.47
2023-02-19T07:04:14.127Z,100448.72
2023-02-19T07:09:16.233Z,100480.06
2023-02-19T07:14:18.382Z,100489.13
2023-02-19T07:19:20.468Z,100473.12
2023-02-19T07:24:22.770Z,100478.06
2023-02-19T07:29:24.873Z,100478.84
2023-02-19T07:34:26.984Z,100459.81
2023-02-19T07:39:29.610Z,100466.38
2023-02-19T07:44:31.775Z,100460.84
2023-02-19T07:49:34.192Z,100443.41
2023-02-19T07:54:36.279Z,100463.81
2023-02-19T07:59:38.377Z,100472.91
2023-02-19T08:04:40.703Z,100475.91
2023-02-19T08:09:44.101Z,100489.66
2023-02-19T08:14:46.241Z,100495.16
2023-02-19T08:19:48.452Z,100477.53
2023-02-19T08:24:50.585Z,100503.94
2023-02-19T08:29:52.679Z,100508.63
2023-02-19T08:34:54.813Z,100508.37
2023-02-19T08:39:56.909Z,100519.91
2023-02-19T08:44:59.016Z,100503.09
2023-02-19T08:50:01.147Z,100489.91
2023-02-19T08:55:05.420Z,100495.19
2023-02-19T09:00:09.070Z,100493.81
2023-02-19T09:05:12.134Z,100485.28
2023-02-19T09:10:14.667Z,100481.44
2023-02-19T09:15:16.925Z,100497.09
2023-02-19T09:20:19.326Z,100495.41
2023-02-19T09:25:21.482Z,100496.25
2023-02-19T09:30:24.383Z,100490.75
2023-02-19T09:35:26.663Z,100497.91
2023-02-19T09:40:30.507Z,100482.53
2023-02-19T09:45:34.795Z,100474.22
2023-02-19T09:50:48.749Z,100448.75
2023-02-19T09:55:53.056Z,100443.34
2023-02-19T10:00:57.530Z,100451.38
2023-02-19T10:06:27.028Z,100451.41
2023-02-19T10:11:29.266Z,100416.69
2023-02-19T10:16:31.601Z,100424.19
2023-02-19T10:21:33.859Z,100401.25
2023-02-19T10:26:36.853Z,100388.31
2023-02-19T10:31:39.388Z,100372.50
2023-02-19T10:36:45.278Z,100355.41
2023-02-19T10:41:49.318Z,100352.66
2023-02-19T10:46:55.370Z,100348.72
2023-02-19T10:52:02.497Z,100324.31
2023-02-19T10:57:19.718Z,100327.75
2023-02-19T11:02:22.368Z,100304.87
2023-02-19T11:07:24.465Z,100297.38
2023-02-19T11:12:33.568Z,100278.19
2023-02-19T11:17:35.935Z,100286.06
2023-02-19T11:22:40.185Z,100283.53
2023-02-19T11:28:08.334Z,100261.75
2023-02-19T11:33:31.142Z,100275.34
2023-02-19T11:38:33.290Z,100256.69
2023-02-19T11:43:54.315Z,100241.22
2023-02-19T11:49:19.466Z,100271.41
2023-02-19T11:54:27.454Z,100245.59
2023-02-19T11:59:52.218Z,100232.03
2023-02-19T12:05:23.821Z,100206.69
2023-02-19T12:10:31.985Z,100223.97
2023-02-19T12:21:21.200Z,100209.69
2023-02-19T12:26:29.720Z,100217.56
2023-02-19T12:31:49.409Z,100222.91
2023-02-19T12:37:16.106Z,100202.13
2023-02-19T12:42:51.267Z,100212.16
2023-02-19T12:48:32.328Z,100219.47
2023-02-19T12:53:45.340Z,100260.69
2023-02-19T12:58:53.767Z,100248.13
2023-02-19T13:04:17.743Z,100252.91
2023-02-19T13:09:30.799Z,100279.72
2023-02-19T13:14:46.052Z,100260.72
2023-02-19T13:19:52.055Z,100245.66
2023-02-19T13:24:55.636Z,100250.78
2023-02-19T13:30:10.452Z,100272.22
2023-02-19T13:35:30.730Z,100287.72
2023-02-19T13:40:39.473Z,100270.19
2023-02-19T13:45:46.081Z,100273.94
2023-02-19T13:50:48.334Z,100284.91
2023-02-19T13:55:52.620Z,100301.78
2023-02-19T14:00:55.110Z,100292.31
2023-02-19T14:06:07.682Z,100308.37
2023-02-19T14:11:12.357Z,100328.72
2023-02-19T14:16:51.700Z,100341.25
2023-02-19T14:21:54.130Z,100350.09
2023-02-19T14:26:57.289Z,100349.66
2023-02-19T14:32:01.216Z,100361.91
2023-02-19T14:37:06.910Z,100375.53
2023-02-19T14:42:21.832Z,100382.16
2023-02-19T14:47:27.434Z,100416.56
2023-02-19T14:52:44.840Z,100394.28
2023-02-19T14:57:49.484Z,100389.44
2023-02-19T15:03:00.757Z,100386.72
2023-02-19T15:08:18.542Z,100386.81
2023-02-19T15:13:28.298Z,100407.13
2023-02-19T15:18:35.709Z,100393.16
2023-02-19T15:23:38.949Z,100413.03
2023-02-19T15:28:41.293Z,100400.19
2023-02-19T15:33:51.291Z,100411.38
2023-02-19T15:39:02.530Z,100388.94
2023-02-19T15:44:17.673Z,100383.63
2023-02-19T15:49:34.090Z,100384.78
2023-02-19T15:55:04.389Z,100394.50
2023-02-19T16:00:11.872Z,100397.81
2023-02-19T16:05:22.828Z,100433.00
2023-02-19T16:10:25.134Z,100430.56
2023-02-19T16:15:29.748Z,100426.13
2023-02-19T16:20:34.868Z,100437.16
2023-02-19T16:25:44.278Z,100458.03
2023-02-19T16:30:46.493Z,100436.06
2023-02-19T16:35:49.778Z,100467.16
2023-02-19T16:40:52.427Z,100490.19
2023-02-19T16:45:54.871Z,100500.03
2023-02-19T16:50:57.168Z,100484.44
2023-02-19T16:55:59.987Z,100496.94
2023-02-19T17:01:02.322Z,100494.81
2023-02-19T17:06:05.103Z,100488.75
2023-02-19T17:11:12.405Z,100515.09
2023-02-19T17:16:21.561Z,100524.81
2023-02-19T17:21:26.721Z,100520.12
2023-02-19T17:26:30.676Z,100525.50
2023-02-19T17:31:34.028Z,100524.19
2023-02-19T17:36:38.092Z,100537.81
2023-02-19T17:41:40.256Z,100524.69
2023-02-19T17:46:43.017Z,100547.50
2023-02-19T17:51:46.350Z,100565.84
2023-02-19T17:56:48.647Z,100559.81
2023-02-19T18:01:50.830Z,100576.63
2023-02-19T18:06:53.973Z,100574.59
2023-02-19T18:11:56.339Z,100576.59
2023-02-19T18:16:58.915Z,100599.69
2023-02-19T18:22:01.034Z,100607.03
2023-02-19T18:27:03.212Z,100606.84
2023-02-19T18:32:05.515Z,100630.53
2023-02-19T18:37:07.640Z,100657.59
2023-02-19T18:42:10.223Z,100673.44
2023-02-19T18:47:12.429Z,100672.13
2023-02-19T18:52:15.790Z,100681.03
2023-02-19T18:57:19.261Z,100709.59
2023-02-19T19:02:22.336Z,100725.03
2023-02-19T19:07:24.938Z,100717.34
2023-02-19T19:12:27.058Z,100732.75
2023-02-19T19:17:29.178Z,100731.13
2023-02-19T19:22:31.337Z,100728.41
2023-02-19T19:27:33.567Z,100710.00
2023-02-19T19:32:35.705Z,100705.56
2023-02-19T19:37:37.885Z,100684.31
2023-02-19T19:42:44.636Z,100710.97
2023-02-19T19:47:48.781Z,100720.84
2023-02-19T19:52:50.864Z,100734.72
2023-02-19T19:57:54.635Z,100710.69
2023-02-19T20:02:56.846Z,100732.44
2023-02-19T20:07:59.000Z,100754.00
2023-02-19T20:13:01.770Z,100798.41
2023-02-19T20:18:04.060Z,100793.44
2023-02-19T20:23:06.290Z,100813.94
2023-02-19T20:28:08.717Z,100822.22
2023-02-19T20:33:10.875Z,100851.31
2023-02-19T20:38:15.707Z,100835.50
2023-02-19T20:43:17.945Z,100880.47
2023-02-19T20:48:20.135Z,100873.69
2023-02-19T20:53:22.286Z,100891.09
2023-02-19T20:58:25.494Z,100905.13
2023-02-19T21:03:27.673Z,100907.84
2023-02-19T21:08:29.799Z,100906.97
2023-02-19T21:13:32.211Z,100913.75
2023-02-19T21:18:34.471Z,100912.13
2023-02-19T21:23:36.641Z,100930.56
2023-02-19T21:28:40.725Z,100939.28
2023-02-19T21:33:43.035Z,100943.25
2023-02-19T21:38:45.132Z,100946.88
2023-02-19T21:43:47.366Z,100962.59
2023-02-19T21:48:55.052Z,100963.50
2023-02-19T21:53:57.766Z,100955.94
2023-02-19T21:58:59.979Z,100931.78
2023-02-19T22:04:02.219Z,100946.53
2023-02-19T22:09:04.446Z,100948.31
2023-02-19T22:14:07.029Z,100942.88
2023-02-19T22:19:12.117Z,100964.41
2023-02-19T22:24:20.188Z,100957.78
2023-02-19T22:29:24.144Z,100965.16
2023-02-19T22:34:26.367Z,100977.81
2023-02-19T22:39:28.525Z,100948.97
2023-02-19T22:44:30.909Z,100996.78
2023-02-19T22:49:33.061Z,100987.91
2023-02-19T22:54:36.233Z,101018.81
2023-02-19T22:59:38.457Z,101000.09
2023-02-19T23:04:40.735Z,101008.88
2023-02-19T23:09:43.082Z,101023.19
2023-02-19T23:14:46.785Z,101034.69
2023-02-19T23:19:50.852Z,101054.63
2023-02-19T23:24:53.954Z,101058.31
2023-02-19T23:29:57.431Z,101056.34
2023-02-19T23:34:59.840Z,101078.09
2023-02-19T23:40:02.005Z,101097.97
2023-02-19T23:45:04.445Z,101084.34
2023-02-19T23:50:07.178Z,101107.13
2023-02-19T23:55:09.381Z,101111.56
